Time;durP1;ratioP1;P1;durP2;ratioP2;P2;SDS_P1;SDS_P2;PMS_P1;PMS_P2;Temp;Humidity;BMP_temperature;BMP_pressure;BME280_temperature;BME280_humidity;BME280_pressure;Samples;Min_cycle;Max_cycle;Signal;HPM_P1;HPM_P2
2023/10/04 00:00:27;;;;;;;7.80;1.80;;;;;;;;;;5114642;28;20242;-78
2023/10/04 00:02:55;;;;;;;7.37;2.10;;;;;;;;;;5114714;28;20641;-79
2023/10/04 00:05:24;;;;;;;6.40;1.67;;;;;;;;;;5114242;28;20699;-79
2023/10/04 00:07:53;;;;;;;5.90;2.00;;;;;;;;;;5114668;28;20213;-79
2023/10/04 00:10:21;;;;;;;4.50;1.70;;;;;;;;;;5114650;28;20242;-79
2023/10/04 00:12:49;;;;;;;6.87;1.83;;;;;;;;;;5114394;28;20196;-79
2023/10/04 00:15:20;;;;;;;5.43;2.10;;;;;;;;;;5114244;28;20231;-78
2023/10/04 00:17:47;;;;;;;5.40;1.97;;;;;;;;;;5114158;28;20192;-78
2023/10/04 00:20:16;;;;;;;4.77;1.80;;;;;;;;;;5113925;28;20277;-78
2023/10/04 00:22:46;;;;;;;5.57;1.90;;;;;;;;;;5114547;28;20194;-78
2023/10/04 00:25:16;;;;;;;6.13;2.03;;;;;;;;;;5114188;28;20207;-80
2023/10/04 00:27:44;;;;;;;6.73;2.37;;;;;;;;;;5114256;28;20198;-79
2023/10/04 00:30:12;;;;;;;6.50;2.50;;;;;;;;;;5114033;28;20204;-78
2023/10/04 00:32:41;;;;;;;6.67;2.13;;;;;;;;;;5114118;28;20206;-79
2023/10/04 00:35:11;;;;;;;5.60;2.20;;;;;;;;;;5113628;28;20720;-79
2023/10/04 00:37:39;;;;;;;9.03;2.60;;;;;;;;;;5113690;28;20200;-80
2023/10/04 00:40:13;;;;;;;4.80;2.40;;;;;;;;;;5113899;28;20240;-78
2023/10/04 00:42:41;;;;;;;7.47;2.40;;;;;;;;;;5114256;28;20736;-79
2023/10/04 00:45:13;;;;;;;6.00;2.17;;;;;;;;;;5113810;28;20208;-78
2023/10/04 00:47:43;;;;;;;6.37;2.47;;;;;;;;;;5113786;28;20202;-80
2023/10/04 00:50:15;;;;;;;6.90;2.10;;;;;;;;;;5113938;28;20290;-79
2023/10/04 00:52:47;;;;;;;5.43;2.23;;;;;;;;;;5113918;28;20219;-79
2023/10/04 00:55:15;;;;;;;6.10;2.17;;;;;;;;;;5113918;28;20198;-79
2023/10/04 00:57:42;;;;;;;6.83;2.40;;;;;;;;;;5114022;28;20563;-79
2023/10/04 01:00:11;;;;;;;8.73;2.50;;;;;;;;;;5113536;28;20190;-80
2023/10/04 01:02:39;;;;;;;8.10;2.70;;;;;;;;;;5112927;28;20558;-79
2023/10/04 01:05:08;;;;;;;5.87;2.20;;;;;;;;;;5112919;28;20664;-79
2023/10/04 01:07:38;;;;;;;6.00;1.93;;;;;;;;;;5113383;28;20751;-79
2023/10/04 01:10:06;;;;;;;5.20;1.90;;;;;;;;;;5113448;28;20724;-78
2023/10/04 01:12:33;;;;;;;5.17;2.10;;;;;;;;;;5113642;28;20224;-79
2023/10/04 01:15:26;;;;;;;4.87;2.07;;;;;;;;;;5113175;28;20288;-79
2023/10/04 01:17:49;;;;;;;5.57;2.30;;;;;;;;;;5112709;28;20688;-79
2023/10/04 01:20:22;;;;;;;5.10;1.77;;;;;;;;;;5113110;28;20189;-79
2023/10/04 01:22:51;;;;;;;8.23;1.87;;;;;;;;;;5108659;28;20682;-78
2023/10/04 01:25:19;;;;;;;6.50;2.07;;;;;;;;;;5102687;28;20213;-78
2023/10/04 01:27:46;;;;;;;5.47;2.00;;;;;;;;;;5092563;28;20202;-79
2023/10/04 01:30:17;;;;;;;5.00;2.00;;;;;;;;;;5092655;28;20277;-80
2023/10/04 01:32:44;;;;;;;5.47;1.80;;;;;;;;;;5092379;28;20221;-80
2023/10/04 01:35:12;;;;;;;3.90;2.00;;;;;;;;;;5092618;28;20356;-79
2023/10/04 01:37:40;;;;;;;4.43;1.97;;;;;;;;;;5092381;28;20267;-79
2023/10/04 01:40:12;;;;;;;7.20;2.10;;;;;;;;;;5092758;28;20288;-79
2023/10/04 01:42:41;;;;;;;5.27;1.90;;;;;;;;;;5092277;28;20226;-80
2023/10/04 01:45:16;;;;;;;6.03;2.07;;;;;;;;;;5091876;28;20654;-79
2023/10/04 01:47:43;;;;;;;4.60;1.77;;;;;;;;;;5091810;28;20688;-79
2023/10/04 01:50:11;;;;;;;5.90;1.67;;;;;;;;;;5092438;28;20194;-79
2023/10/04 01:52:38;;;;;;;5.53;1.73;;;;;;;;;;5092041;28;20221;-79
2023/10/04 01:55:10;;;;;;;5.40;1.90;;;;;;;;;;5092231;28;20198;-79
2023/10/04 01:57:39;;;;;;;6.03;2.00;;;;;;;;;;5092364;28;20241;-79
2023/10/04 02:00:09;;;;;;;6.43;2.00;;;;;;;;;;5091911;28;20283;-79
2023/10/04 02:02:38;;;;;;;6.70;2.30;;;;;;;;;;5092119;28;20199;-79
2023/10/04 02:05:06;;;;;;;3.83;1.93;;;;;;;;;;5092111;28;20219;-79
2023/10/04 02:07:33;;;;;;;6.47;2.07;;;;;;;;;;5091763;28;20287;-78
2023/10/04 02:10:00;;;;;;;5.53;2.07;;;;;;;;;;5091812;28;20688;-79
2023/10/04 02:12:28;;;;;;;4.80;1.80;;;;;;;;;;5092161;28;20198;-79
2023/10/04 02:14:56;;;;;;;8.43;1.80;;;;;;;;;;5091283;28;20281;-79
2023/10/04 02:17:24;;;;;;;4.53;2.23;;;;;;;;;;5091008;28;20236;-79
2023/10/04 02:19:53;;;;;;;7.63;2.30;;;;;;;;;;5112527;28;20214;-79
2023/10/04 02:22:22;;;;;;;5.67;2.20;;;;;;;;;;5112149;28;20198;-79
2023/10/04 02:24:50;;;;;;;5.67;1.90;;;;;;;;;;5112240;28;20233;-79
2023/10/04 02:27:18;;;;;;;7.13;2.20;;;;;;;;;;5112194;28;20194;-79
2023/10/04 02:29:47;;;;;;;6.60;1.80;;;;;;;;;;5111444;28;20194;-79
2023/10/04 02:32:16;;;;;;;5.50;1.87;;;;;;;;;;5111891;28;20213;-80
2023/10/04 02:34:43;;;;;;;4.97;1.60;;;;;;;;;;5111833;28;20201;-79
2023/10/04 02:37:11;;;;;;;4.23;1.60;;;;;;;;;;5112008;28;20717;-79
2023/10/04 02:39:39;;;;;;;6.10;1.90;;;;;;;;;;5111689;28;20244;-79
2023/10/04 02:42:09;;;;;;;5.43;1.90;;;;;;;;;;5111386;28;20725;-79
2023/10/04 02:44:37;;;;;;;4.03;1.63;;;;;;;;;;5111237;28;20197;-79
2023/10/04 02:47:06;;;;;;;6.40;1.83;;;;;;;;;;5111594;28;20221;-79
2023/10/04 02:49:37;;;;;;;5.33;1.90;;;;;;;;;;5110642;28;20233;-79
2023/10/04 02:52:06;;;;;;;6.60;1.93;;;;;;;;;;5110955;28;20887;-79
2023/10/04 02:54:33;;;;;;;4.97;1.90;;;;;;;;;;5111298;28;20277;-79
2023/10/04 02:57:03;;;;;;;5.20;1.70;;;;;;;;;;5111183;28;20327;-79
2023/10/04 02:59:33;;;;;;;5.33;1.60;;;;;;;;;;5111542;28;20248;-79
2023/10/04 03:02:01;;;;;;;3.07;1.60;;;;;;;;;;5111251;28;20709;-79
2023/10/04 03:04:28;;;;;;;5.10;2.07;;;;;;;;;;5110921;28;20253;-79
2023/10/04 03:06:57;;;;;;;3.40;1.53;;;;;;;;;;5111845;28;20318;-79
2023/10/04 03:09:25;;;;;;;4.27;1.67;;;;;;;;;;5110984;28;20198;-79
2023/10/04 03:11:53;;;;;;;4.83;1.60;;;;;;;;;;5111441;28;20202;-79
2023/10/04 03:14:20;;;;;;;5.43;1.80;;;;;;;;;;5110586;28;20197;-78
2023/10/04 03:16:47;;;;;;;3.77;1.63;;;;;;;;;;5111480;28;20330;-79
2023/10/04 03:19:16;;;;;;;5.03;1.60;;;;;;;;;;5111335;28;20233;-78
2023/10/04 03:21:45;;;;;;;5.57;1.70;;;;;;;;;;5111340;28;20198;-79
2023/10/04 03:24:14;;;;;;;4.33;1.90;;;;;;;;;;5111461;28;20247;-79
2023/10/04 03:26:42;;;;;;;5.50;1.83;;;;;;;;;;5111872;28;20200;-79
2023/10/04 03:29:11;;;;;;;5.20;1.63;;;;;;;;;;5115024;28;20247;-78
2023/10/04 03:31:39;;;;;;;3.93;1.30;;;;;;;;;;5115028;28;20204;-79
2023/10/04 03:34:07;;;;;;;3.60;1.40;;;;;;;;;;5115584;27;20213;-79
2023/10/04 03:36:39;;;;;;;2.23;1.40;;;;;;;;;;5115170;28;20324;-79
2023/10/04 03:39:09;;;;;;;2.87;1.30;;;;;;;;;;5114992;28;20202;-80
2023/10/04 03:41:42;;;;;;;5.30;1.40;;;;;;;;;;5114766;28;20679;-79
2023/10/04 03:44:11;;;;;;;5.97;1.73;;;;;;;;;;5114789;28;20209;-79
2023/10/04 03:46:38;;;;;;;5.60;1.83;;;;;;;;;;5114909;28;20309;-79
2023/10/04 03:49:06;;;;;;;6.97;1.87;;;;;;;;;;5114883;28;20194;-79
2023/10/04 03:51:33;;;;;;;4.23;2.17;;;;;;;;;;5115331;28;20251;-79
2023/10/04 03:54:05;;;;;;;7.77;2.17;;;;;;;;;;5114732;28;20288;-79
2023/10/04 03:56:33;;;;;;;7.17;2.50;;;;;;;;;;5113927;28;20298;-79
2023/10/04 03:59:03;;;;;;;7.73;2.30;;;;;;;;;;5114908;28;20224;-79
2023/10/04 04:01:31;;;;;;;6.67;2.10;;;;;;;;;;5114709;28;20201;-80
2023/10/04 04:04:03;;;;;;;5.67;2.23;;;;;;;;;;5114356;28;20198;-79
2023/10/04 04:06:30;;;;;;;4.63;1.90;;;;;;;;;;5114557;28;20197;-78
2023/10/04 04:09:01;;;;;;;5.83;2.30;;;;;;;;;;5114459;28;20610;-79
2023/10/04 04:11:28;;;;;;;7.27;2.37;;;;;;;;;;5114015;28;20194;-79
2023/10/04 04:13:56;;;;;;;4.73;1.40;;;;;;;;;;5114423;28;20547;-80
2023/10/04 04:16:25;;;;;;;2.13;1.30;;;;;;;;;;5114189;28;20316;-79
2023/10/04 04:18:54;;;;;;;2.77;1.20;;;;;;;;;;5114403;28;20205;-79
2023/10/04 04:21:21;;;;;;;4.70;1.47;;;;;;;;;;5114510;28;20205;-79
2023/10/04 04:23:49;;;;;;;3.47;1.50;;;;;;;;;;5114361;28;20226;-79
2023/10/04 04:26:16;;;;;;;4.57;1.60;;;;;;;;;;5113864;28;20927;-79
2023/10/04 04:28:44;;;;;;;3.83;1.73;;;;;;;;;;5114192;28;20196;-78
2023/10/04 04:31:14;;;;;;;3.50;1.50;;;;;;;;;;5114167;28;20700;-79
2023/10/04 04:33:43;;;;;;;6.07;1.90;;;;;;;;;;5114268;28;20236;-79
2023/10/04 04:36:18;;;;;;;6.67;2.00;;;;;;;;;;5113747;28;20220;-78
2023/10/04 04:38:47;;;;;;;4.40;2.10;;;;;;;;;;5113031;28;20216;-79
2023/10/04 04:41:17;;;;;;;6.83;1.97;;;;;;;;;;5114539;28;20197;-78
2023/10/04 04:43:45;;;;;;;4.00;1.70;;;;;;;;;;5113744;28;20212;-79
2023/10/04 04:46:13;;;;;;;5.17;2.07;;;;;;;;;;5113933;28;20240;-78
2023/10/04 04:48:41;;;;;;;3.87;1.73;;;;;;;;;;5113945;28;20197;-79
2023/10/04 04:51:12;;;;;;;3.07;1.60;;;;;;;;;;5113761;28;20675;-79
2023/10/04 04:53:40;;;;;;;3.00;1.80;;;;;;;;;;5113956;28;20247;-78
2023/10/04 04:56:12;;;;;;;7.37;1.90;;;;;;;;;;5113729;28;20289;-79
2023/10/04 04:58:39;;;;;;;6.13;2.10;;;;;;;;;;5113664;28;20271;-78
2023/10/04 05:01:11;;;;;;;6.63;2.10;;;;;;;;;;5113780;28;20196;-79
2023/10/04 05:03:41;;;;;;;5.40;2.00;;;;;;;;;;5113694;28;20620;-78
2023/10/04 05:06:14;;;;;;;5.50;2.10;;;;;;;;;;5113543;28;20289;-79
2023/10/04 05:08:41;;;;;;;6.77;2.47;;;;;;;;;;5112824;28;20194;-78
2023/10/04 05:11:09;;;;;;;7.30;2.43;;;;;;;;;;5112898;28;20266;-80
2023/10/04 05:13:36;;;;;;;6.33;2.37;;;;;;;;;;5112923;28;20197;-78
2023/10/04 05:16:04;;;;;;;6.47;2.30;;;;;;;;;;5112555;28;20221;-78
2023/10/04 05:18:31;;;;;;;7.23;3.10;;;;;;;;;;5112229;28;20240;-79
2023/10/04 05:21:00;;;;;;;5.20;2.50;;;;;;;;;;5112893;28;20262;-78
2023/10/04 05:23:30;;;;;;;5.40;2.80;;;;;;;;;;5112126;28;20213;-80
2023/10/04 05:25:57;;;;;;;7.43;2.83;;;;;;;;;;5113231;28;20190;-79
2023/10/04 05:28:27;;;;;;;6.10;2.27;;;;;;;;;;5113172;28;20236;-79
2023/10/04 05:30:54;;;;;;;7.70;2.47;;;;;;;;;;5112963;28;20199;-80
2023/10/04 05:33:22;;;;;;;6.53;2.60;;;;;;;;;;5110354;28;20190;-80
2023/10/04 05:35:53;;;;;;;4.17;2.43;;;;;;;;;;5102718;28;20794;-78
2023/10/04 05:38:20;;;;;;;5.03;2.30;;;;;;;;;;5107181;28;20238;-79
2023/10/04 05:40:49;;;;;;;7.70;2.77;;;;;;;;;;5100131;28;20286;-79
2023/10/04 05:43:17;;;;;;;5.33;2.47;;;;;;;;;;5111365;28;20251;-80
2023/10/04 05:45:46;;;;;;;4.73;2.00;;;;;;;;;;5111999;28;20204;-79
2023/10/04 05:48:13;;;;;;;7.17;2.10;;;;;;;;;;5111416;28;20302;-81
2023/10/04 05:50:41;;;;;;;6.37;2.27;;;;;;;;;;5111618;27;20230;-79
2023/10/04 05:53:08;;;;;;;4.73;2.17;;;;;;;;;;5111669;28;20234;-79
2023/10/04 05:55:36;;;;;;;2.90;1.87;;;;;;;;;;5112520;28;20200;-78
2023/10/04 05:58:07;;;;;;;4.07;1.80;;;;;;;;;;5112518;28;20287;-77
2023/10/04 06:00:34;;;;;;;3.13;1.63;;;;;;;;;;5112764;28;20194;-76
2023/10/04 06:03:04;;;;;;;7.40;2.43;;;;;;;;;;5113040;28;20201;-79
2023/10/04 06:05:34;;;;;;;4.87;2.10;;;;;;;;;;5112270;28;20197;-76
2023/10/04 06:08:05;;;;;;;7.93;2.10;;;;;;;;;;5111922;28;20262;-79
2023/10/04 06:10:33;;;;;;;4.40;1.73;;;;;;;;;;5112278;28;20610;-77
2023/10/04 06:13:00;;;;;;;4.43;2.23;;;;;;;;;;5112227;28;20679;-78
2023/10/04 06:15:29;;;;;;;5.07;2.23;;;;;;;;;;5112098;28;20665;-77
2023/10/04 06:17:59;;;;;;;6.70;2.60;;;;;;;;;;5111594;28;20221;-76
2023/10/04 06:20:28;;;;;;;6.43;2.50;;;;;;;;;;5112076;28;20194;-77
2023/10/04 06:22:57;;;;;;;5.17;2.37;;;;;;;;;;5111495;28;20288;-78
2023/10/04 06:25:25;;;;;;;4.27;2.10;;;;;;;;;;5111923;28;20198;-78
2023/10/04 06:27:53;;;;;;;6.40;2.00;;;;;;;;;;5111998;28;20197;-77
2023/10/04 06:30:23;;;;;;;3.53;2.10;;;;;;;;;;5111842;28;20198;-77
2023/10/04 06:32:53;;;;;;;6.13;2.57;;;;;;;;;;5111949;28;20225;-78
2023/10/04 06:35:22;;;;;;;6.10;2.67;;;;;;;;;;5111988;28;20202;-77
2023/10/04 06:37:50;;;;;;;6.20;2.40;;;;;;;;;;5111350;28;20268;-77
2023/10/04 06:40:19;;;;;;;6.53;2.20;;;;;;;;;;5111888;28;20193;-78
2023/10/04 06:42:47;;;;;;;5.43;2.03;;;;;;;;;;5111920;28;20198;-78
2023/10/04 06:45:14;;;;;;;6.53;2.30;;;;;;;;;;5111947;28;20250;-77
2023/10/04 06:47:44;;;;;;;6.47;2.57;;;;;;;;;;5111827;28;20213;-77
2023/10/04 06:50:18;;;;;;;4.40;2.30;;;;;;;;;;5111365;28;20251;-78
2023/10/04 06:52:45;;;;;;;5.43;2.57;;;;;;;;;;5112063;28;20221;-77
2023/10/04 06:55:12;;;;;;;10.07;2.87;;;;;;;;;;5111976;28;20237;-77
2023/10/04 06:57:43;;;;;;;6.90;2.97;;;;;;;;;;5112044;28;20248;-76
2023/10/04 07:00:15;;;;;;;10.47;3.53;;;;;;;;;;5111283;28;20598;-77
2023/10/04 07:02:43;;;;;;;6.17;2.93;;;;;;;;;;5113645;28;20207;-78
2023/10/04 07:05:10;;;;;;;20.13;3.40;;;;;;;;;;5115700;28;20198;-78
2023/10/04 07:07:39;;;;;;;11.93;3.30;;;;;;;;;;5115740;28;20686;-78
2023/10/04 07:10:09;;;;;;;5.13;2.37;;;;;;;;;;5115810;28;20337;-77
2023/10/04 07:12:37;;;;;;;5.37;2.57;;;;;;;;;;5115475;28;20236;-76
2023/10/04 07:15:06;;;;;;;7.70;2.60;;;;;;;;;;5115738;28;20285;-79
2023/10/04 07:17:33;;;;;;;5.23;2.20;;;;;;;;;;5115235;28;20257;-79
2023/10/04 07:20:01;;;;;;;4.57;2.23;;;;;;;;;;5115725;28;20650;-80
2023/10/04 07:22:32;;;;;;;8.53;2.50;;;;;;;;;;5115606;28;20204;-79
2023/10/04 07:25:01;;;;;;;14.83;3.30;;;;;;;;;;5115397;28;20604;-76
2023/10/04 07:27:28;;;;;;;9.63;3.60;;;;;;;;;;5115565;28;20205;-78
2023/10/04 07:29:55;;;;;;;10.37;2.60;;;;;;;;;;5115581;28;20228;-77
2023/10/04 07:32:22;;;;;;;9.00;2.63;;;;;;;;;;5114820;28;20194;-78
2023/10/04 07:34:49;;;;;;;6.43;2.70;;;;;;;;;;5114692;28;20694;-78
2023/10/04 07:37:17;;;;;;;13.70;3.10;;;;;;;;;;5115319;28;20238;-77
2023/10/04 07:39:44;;;;;;;37.70;4.83;;;;;;;;;;5114870;28;20197;-78
2023/10/04 07:42:12;;;;;;;16.40;3.17;;;;;;;;;;5115403;28;20693;-77
2023/10/04 07:44:39;;;;;;;8.97;3.27;;;;;;;;;;5115341;28;20259;-79
2023/10/04 07:47:07;;;;;;;9.30;3.30;;;;;;;;;;5115123;28;20288;-80
2023/10/04 07:49:34;;;;;;;11.00;3.37;;;;;;;;;;5114694;28;20232;-79
2023/10/04 07:52:03;;;;;;;9.77;3.37;;;;;;;;;;5115280;28;20204;-80
2023/10/04 07:54:31;;;;;;;7.07;3.20;;;;;;;;;;5115107;28;20275;-79
2023/10/04 07:56:58;;;;;;;4.87;3.00;;;;;;;;;;5114827;28;20196;-80
2023/10/04 07:59:27;;;;;;;7.93;3.17;;;;;;;;;;5114512;28;20233;-79
2023/10/04 08:01:55;;;;;;;6.40;3.30;;;;;;;;;;5114648;28;20202;-79
2023/10/04 08:04:23;;;;;;;6.80;2.60;;;;;;;;;;5114474;28;20201;-80
2023/10/04 08:06:52;;;;;;;7.27;2.60;;;;;;;;;;5114842;28;20197;-79
2023/10/04 08:09:21;;;;;;;5.50;2.90;;;;;;;;;;5114854;28;20236;-80
2023/10/04 08:11:48;;;;;;;6.07;3.10;;;;;;;;;;5114749;28;20609;-80
2023/10/04 08:14:15;;;;;;;6.90;2.90;;;;;;;;;;5113103;28;20198;-79
2023/10/04 08:16:44;;;;;;;6.33;3.07;;;;;;;;;;5114299;28;20640;-80
2023/10/04 08:19:13;;;;;;;8.85;2.95;;;;;;;;;;5114021;28;20228;-80
2023/10/04 08:21:41;;;;;;;6.88;2.85;;;;;;;;;;5114653;28;20196;-80
2023/10/04 08:24:09;;;;;;;7.07;2.70;;;;;;;;;;5114084;28;20716;-80
2023/10/04 08:26:37;;;;;;;8.38;3.10;;;;;;;;;;5114534;28;20194;-81
2023/10/04 08:29:05;;;;;;;9.60;3.42;;;;;;;;;;5114323;28;20198;-80
2023/10/04 08:31:33;;;;;;;7.03;2.90;;;;;;;;;;5114335;28;20306;-80
2023/10/04 08:34:02;;;;;;;8.82;3.10;;;;;;;;;;5113830;28;20739;-77
2023/10/04 08:36:30;;;;;;;9.07;3.03;;;;;;;;;;5114331;28;20229;-80
2023/10/04 08:38:57;;;;;;;10.77;3.40;;;;;;;;;;5113997;28;20253;-80
2023/10/04 08:41:24;;;;;;;6.68;2.78;;;;;;;;;;5114177;28;20197;-78
2023/10/04 08:43:51;;;;;;;8.93;3.13;;;;;;;;;;5114178;28;20229;-78
2023/10/04 08:46:19;;;;;;;6.65;2.42;;;;;;;;;;5113113;28;20237;-79
2023/10/04 08:48:53;;;;;;;8.80;2.70;;;;;;;;;;5113719;28;20659;-78
2023/10/04 08:51:27;;;;;;;13.25;2.97;;;;;;;;;;5113657;28;20692;-79
2023/10/04 08:53:58;;;;;;;9.65;3.65;;;;;;;;;;5114098;28;20193;-78
2023/10/04 08:56:27;;;;;;;11.75;4.10;;;;;;;;;;5113710;28;20286;-79
2023/10/04 08:58:55;;;;;;;10.93;3.88;;;;;;;;;;5113542;28;20218;-80
2023/10/04 09:01:23;;;;;;;10.48;3.10;;;;;;;;;;5113390;28;20194;-79
2023/10/04 09:03:52;;;;;;;16.95;3.40;;;;;;;;;;5114055;28;20338;-80
2023/10/04 09:06:20;;;;;;;14.63;3.20;;;;;;;;;;5113504;28;20197;-78
2023/10/04 09:08:49;;;;;;;8.38;3.03;;;;;;;;;;5113292;28;20194;-80
2023/10/04 09:11:16;;;;;;;17.48;3.78;;;;;;;;;;5113869;28;20247;-80
2023/10/04 09:13:45;;;;;;;11.38;3.42;;;;;;;;;;5113414;28;20240;-79
2023/10/04 09:16:18;;;;;;;9.75;3.10;;;;;;;;;;5112820;28;20229;-79
2023/10/04 09:18:45;;;;;;;13.15;3.13;;;;;;;;;;5112893;28;20240;-80
2023/10/04 09:21:16;;;;;;;8.50;3.40;;;;;;;;;;5113074;28;20239;-79
2023/10/04 09:23:45;;;;;;;10.27;2.88;;;;;;;;;;5113002;28;20194;-79
2023/10/04 09:26:17;;;;;;;13.02;3.40;;;;;;;;;;5112737;27;20198;-80
2023/10/04 09:28:44;;;;;;;8.70;3.10;;;;;;;;;;5112987;28;20588;-80
2023/10/04 09:31:12;;;;;;;12.68;3.45;;;;;;;;;;5112697;28;20205;-79
2023/10/04 09:33:41;;;;;;;8.57;3.58;;;;;;;;;;5113039;28;20190;-79
2023/10/04 09:36:10;;;;;;;15.35;3.88;;;;;;;;;;5113352;28;20278;-80
2023/10/04 09:38:39;;;;;;;10.57;3.28;;;;;;;;;;5112553;28;20232;-79
2023/10/04 09:41:06;;;;;;;10.20;3.75;;;;;;;;;;5112928;28;20204;-80
2023/10/04 09:43:37;;;;;;;9.27;3.00;;;;;;;;;;5112725;28;20185;-80
2023/10/04 09:46:07;;;;;;;10.55;3.78;;;;;;;;;;5112432;28;20252;-79
2023/10/04 09:48:34;;;;;;;13.90;5.22;;;;;;;;;;5112898;28;20697;-79
2023/10/04 09:51:04;;;;;;;15.77;6.35;;;;;;;;;;5112793;28;20284;-80
2023/10/04 09:53:31;;;;;;;18.33;7.03;;;;;;;;;;5112556;28;20194;-79
2023/10/04 09:56:01;;;;;;;14.93;5.65;;;;;;;;;;5112616;28;20237;-80
2023/10/04 09:58:30;;;;;;;16.27;6.95;;;;;;;;;;5112202;28;20613;-80
2023/10/04 10:01:03;;;;;;;14.77;7.38;;;;;;;;;;5111822;28;20200;-81
2023/10/04 10:03:33;;;;;;;13.77;5.85;;;;;;;;;;5112326;28;20735;-81
2023/10/04 10:06:01;;;;;;;14.30;5.32;;;;;;;;;;5112616;28;20194;-80
2023/10/04 10:08:32;;;;;;;13.98;4.28;;;;;;;;;;5112283;28;20201;-81
2023/10/04 10:11:01;;;;;;;9.60;3.88;;;;;;;;;;5112598;28;20233;-81
2023/10/04 10:13:29;;;;;;;8.85;2.90;;;;;;;;;;5111566;28;20194;-80
2023/10/04 10:15:58;;;;;;;11.88;3.10;;;;;;;;;;5111717;28;20230;-80
2023/10/04 10:18:25;;;;;;;10.15;2.53;;;;;;;;;;5112388;28;20253;-82
2023/10/04 10:20:55;;;;;;;5.60;1.83;;;;;;;;;;5112056;28;20225;-81
2023/10/04 10:23:22;;;;;;;5.35;1.45;;;;;;;;;;5111791;28;20682;-82
2023/10/04 10:26:07;;;;;;;8.85;2.25;;;;;;;;;;5112195;28;20749;-81
2023/10/04 10:28:35;;;;;;;8.50;1.90;;;;;;;;;;5111932;28;20240;-82
2023/10/04 10:31:07;;;;;;;6.47;1.73;;;;;;;;;;5111887;28;20240;-81
2023/10/04 10:33:34;;;;;;;5.20;1.70;;;;;;;;;;5112258;28;20222;-81
2023/10/04 10:36:04;;;;;;;7.57;1.60;;;;;;;;;;5112257;28;20237;-82
2023/10/04 10:38:32;;;;;;;9.23;1.80;;;;;;;;;;5111487;28;20418;-81
2023/10/04 10:41:01;;;;;;;7.00;1.80;;;;;;;;;;5112034;28;20190;-82
2023/10/04 10:43:28;;;;;;;7.22;1.65;;;;;;;;;;5111654;28;20276;-81
2023/10/04 10:45:56;;;;;;;7.10;1.80;;;;;;;;;;5111839;28;20241;-82
2023/10/04 10:48:33;;;;;;;6.55;2.00;;;;;;;;;;5111907;28;20292;-81
2023/10/04 10:51:01;;;;;;;6.38;1.55;;;;;;;;;;5110587;28;20197;-82
2023/10/04 10:53:28;;;;;;;5.40;1.70;;;;;;;;;;5105528;28;20678;-82
2023/10/04 10:55:55;;;;;;;5.88;1.67;;;;;;;;;;5100685;28;20205;-83
2023/10/04 10:58:23;;;;;;;7.30;1.90;;;;;;;;;;5111646;28;20278;-82
2023/10/04 11:00:50;;;;;;;8.23;2.38;;;;;;;;;;5114040;28;20240;-81
2023/10/04 11:03:20;;;;;;;4.32;2.08;;;;;;;;;;5104538;28;20691;-82
2023/10/04 11:05:48;;;;;;;7.05;1.98;;;;;;;;;;5112092;28;20198;-82
2023/10/04 11:08:16;;;;;;;7.20;2.30;;;;;;;;;;5094174;28;20313;-82
2023/10/04 11:10:44;;;;;;;6.90;2.20;;;;;;;;;;5091734;28;20234;-82
2023/10/04 11:13:18;;;;;;;7.80;1.55;;;;;;;;;;5109850;28;20280;-82
2023/10/04 11:15:46;;;;;;;5.85;1.80;;;;;;;;;;5111378;28;20279;-81
2023/10/04 11:18:15;;;;;;;8.80;1.88;;;;;;;;;;5110198;28;20198;-82
2023/10/04 11:20:42;;;;;;;6.68;1.83;;;;;;;;;;5108033;28;20229;-82
2023/10/04 11:23:11;;;;;;;5.40;1.48;;;;;;;;;;5112046;28;20213;-82
2023/10/04 11:25:39;;;;;;;6.60;1.70;;;;;;;;;;5114214;28;20243;-82
2023/10/04 11:28:07;;;;;;;8.27;1.90;;;;;;;;;;5114008;28;20281;-82
2023/10/04 11:30:34;;;;;;;7.88;2.00;;;;;;;;;;5108761;28;20221;-82
2023/10/04 11:33:02;;;;;;;4.88;1.58;;;;;;;;;;5091890;28;20636;-82
2023/10/04 11:35:34;;;;;;;4.68;1.45;;;;;;;;;;5099580;28;20193;-82
2023/10/04 11:38:05;;;;;;;6.80;1.88;;;;;;;;;;5111224;28;20190;-83
2023/10/04 11:40:34;;;;;;;5.32;1.17;;;;;;;;;;5110791;28;20591;-81
2023/10/04 11:43:03;;;;;;;3.88;1.70;;;;;;;;;;5111274;28;20260;-83
2023/10/04 11:45:31;;;;;;;5.00;1.60;;;;;;;;;;5111330;28;20733;-83
2023/10/04 11:48:00;;;;;;;6.72;1.52;;;;;;;;;;5111778;28;20190;-82
2023/10/04 11:50:42;;;;;;;6.20;1.35;;;;;;;;;;5115337;27;20205;-82
2023/10/04 11:53:09;;;;;;;4.60;1.50;;;;;;;;;;5114870;28;20285;-82
2023/10/04 11:55:37;;;;;;;6.35;1.60;;;;;;;;;;5114850;28;20289;-83
2023/10/04 11:58:05;;;;;;;5.63;1.60;;;;;;;;;;5114976;28;20282;-81
2023/10/04 12:00:33;;;;;;;3.78;1.30;;;;;;;;;;5114695;28;20320;-82
2023/10/04 12:03:00;;;;;;;6.63;1.75;;;;;;;;;;5114754;28;20277;-82
2023/10/04 12:05:27;;;;;;;4.22;1.90;;;;;;;;;;5114440;28;20225;-81
2023/10/04 12:07:58;;;;;;;6.25;1.55;;;;;;;;;;5119647;27;20212;-82
2023/10/04 12:10:25;;;;;;;6.75;1.55;;;;;;;;;;5135211;27;20201;-82
2023/10/04 12:12:57;;;;;;;5.53;1.42;;;;;;;;;;5135196;27;20632;-83
2023/10/04 12:15:25;;;;;;;6.75;1.60;;;;;;;;;;5134981;27;20233;-82
2023/10/04 12:17:53;;;;;;;3.97;1.40;;;;;;;;;;5129466;27;20274;-82
2023/10/04 12:20:21;;;;;;;3.70;1.40;;;;;;;;;;5114540;28;20643;-82
2023/10/04 12:22:49;;;;;;;6.78;1.42;;;;;;;;;;5114375;28;20198;-82
2023/10/04 12:25:16;;;;;;;5.80;1.52;;;;;;;;;;5121966;27;20301;-83
2023/10/04 12:27:45;;;;;;;4.00;1.40;;;;;;;;;;5135129;27;20232;-82
2023/10/04 12:30:18;;;;;;;4.32;1.48;;;;;;;;;;5125744;27;20197;-82
2023/10/04 12:32:46;;;;;;;7.00;1.83;;;;;;;;;;5114868;28;20190;-82
2023/10/04 12:35:14;;;;;;;4.68;1.60;;;;;;;;;;5113888;28;20666;-82
2023/10/04 12:37:41;;;;;;;4.47;1.50;;;;;;;;;;5093511;28;20198;-83
2023/10/04 12:40:17;;;;;;;4.15;1.50;;;;;;;;;;5093402;28;20247;-83
2023/10/04 12:42:44;;;;;;;6.25;1.52;;;;;;;;;;5106899;27;20292;-82
2023/10/04 12:45:12;;;;;;;7.70;1.40;;;;;;;;;;5114328;28;20194;-82
2023/10/04 12:47:41;;;;;;;3.72;1.23;;;;;;;;;;5113730;28;20201;-82
2023/10/04 12:50:09;;;;;;;5.25;1.50;;;;;;;;;;5113675;28;20190;-82
2023/10/04 12:52:36;;;;;;;5.68;1.90;;;;;;;;;;5114323;27;20200;-83
2023/10/04 12:55:05;;;;;;;7.05;1.70;;;;;;;;;;5113805;28;20205;-82
2023/10/04 12:57:33;;;;;;;4.47;1.50;;;;;;;;;;5113882;28;20350;-83
2023/10/04 13:00:01;;;;;;;3.47;1.40;;;;;;;;;;5116171;27;20226;-83
2023/10/04 13:02:28;;;;;;;3.80;1.50;;;;;;;;;;5113102;28;20557;-83
2023/10/04 13:04:57;;;;;;;4.47;1.63;;;;;;;;;;5113352;28;20209;-83
2023/10/04 13:07:25;;;;;;;5.20;1.55;;;;;;;;;;5112757;27;20229;-82
2023/10/04 13:09:53;;;;;;;4.53;1.30;;;;;;;;;;5093272;28;20198;-82
2023/10/04 13:12:20;;;;;;;4.13;1.55;;;;;;;;;;5093177;28;20964;-82
2023/10/04 13:14:48;;;;;;;7.03;1.75;;;;;;;;;;5092968;28;20190;-83
2023/10/04 13:17:16;;;;;;;4.30;1.40;;;;;;;;;;5110034;27;20286;-83
2023/10/04 13:19:43;;;;;;;8.98;2.00;;;;;;;;;;5112971;28;20225;-82
2023/10/04 13:22:12;;;;;;;6.22;1.58;;;;;;;;;;5112688;28;20252;-81
2023/10/04 13:24:39;;;;;;;3.75;1.33;;;;;;;;;;5113598;28;20240;-83
2023/10/04 13:27:07;;;;;;;6.90;1.40;;;;;;;;;;5112886;28;20686;-83
2023/10/04 13:29:34;;;;;;;5.65;1.63;;;;;;;;;;5112862;28;20281;-83
2023/10/04 13:32:02;;;;;;;5.70;1.70;;;;;;;;;;5113028;28;20762;-81
2023/10/04 13:34:30;;;;;;;5.38;1.83;;;;;;;;;;5113949;27;20240;-82
2023/10/04 13:36:57;;;;;;;5.57;1.50;;;;;;;;;;5113218;28;20201;-83
2023/10/04 13:39:27;;;;;;;4.68;1.52;;;;;;;;;;5112670;28;20193;-82
2023/10/04 13:41:54;;;;;;;6.68;1.90;;;;;;;;;;5112902;28;20205;-82
2023/10/04 13:44:22;;;;;;;3.00;1.17;;;;;;;;;;5113043;28;20258;-83
2023/10/04 13:46:49;;;;;;;5.97;2.03;;;;;;;;;;5104139;28;20204;-83
2023/10/04 13:49:16;;;;;;;4.85;2.22;;;;;;;;;;5113156;28;20194;-83
2023/10/04 13:51:44;;;;;;;4.38;1.67;;;;;;;;;;5115205;28;20283;-82
2023/10/04 13:54:11;;;;;;;6.40;2.13;;;;;;;;;;5115477;28;20246;-82
2023/10/04 13:56:42;;;;;;;5.28;2.08;;;;;;;;;;5112852;28;20236;-82
2023/10/04 13:59:09;;;;;;;3.92;1.90;;;;;;;;;;5112568;28;20205;-82
2023/10/04 14:01:36;;;;;;;4.40;2.30;;;;;;;;;;5112559;28;20229;-82
2023/10/04 14:04:03;;;;;;;7.40;2.20;;;;;;;;;;5112437;28;20280;-83
2023/10/04 14:06:31;;;;;;;7.07;2.20;;;;;;;;;;5112269;28;20197;-83
2023/10/04 14:08:58;;;;;;;5.93;2.50;;;;;;;;;;5112053;28;20194;-82
2023/10/04 14:11:25;;;;;;;8.07;3.05;;;;;;;;;;5111616;28;20824;-82
2023/10/04 14:13:54;;;;;;;7.88;2.35;;;;;;;;;;5112594;28;20258;-83
2023/10/04 14:16:23;;;;;;;8.00;2.53;;;;;;;;;;5111785;28;20228;-83
2023/10/04 14:18:50;;;;;;;9.43;1.98;;;;;;;;;;5111692;28;20201;-82
2023/10/04 14:21:18;;;;;;;5.97;1.90;;;;;;;;;;5111582;28;20230;-83
2023/10/04 14:23:46;;;;;;;7.53;2.13;;;;;;;;;;5112504;28;20284;-83
2023/10/04 14:26:13;;;;;;;5.10;1.92;;;;;;;;;;5111666;28;20650;-82
2023/10/04 14:28:40;;;;;;;6.35;2.35;;;;;;;;;;5112229;28;20229;-82
2023/10/04 14:31:09;;;;;;;4.78;2.10;;;;;;;;;;5112074;28;20190;-81
2023/10/04 14:33:39;;;;;;;6.30;2.35;;;;;;;;;;5112474;28;20228;-81
2023/10/04 14:36:06;;;;;;;4.63;2.30;;;;;;;;;;5111554;28;20676;-82
2023/10/04 14:38:34;;;;;;;6.88;2.70;;;;;;;;;;5111817;28;20236;-81
2023/10/04 14:41:01;;;;;;;6.15;2.20;;;;;;;;;;5112050;28;20265;-81
2023/10/04 14:43:29;;;;;;;5.00;2.25;;;;;;;;;;5111935;28;20197;-82
2023/10/04 14:45:56;;;;;;;4.78;2.10;;;;;;;;;;5112415;28;20280;-83
2023/10/04 14:48:25;;;;;;;4.93;1.80;;;;;;;;;;5111830;28;20234;-82